Terminal Aerodrome Forecast
Issued by NWS Charleston, WV

Current Version | Previous Version | Graphics & Text | Print | Product List | Glossary On
Versions: 1 2 3 4 5 6 7 8 9 10 11 12 13 14 15 16 17 18 19 20 21 22 23 24 25 26 27 28 29
000
FTUS41 KRLX 261100
TAFCRW
TAF
KCRW 261135Z 2612/2712 00000KT 3SM -RA BR SCT001 OVC018
     FM261300 00000KT 1SM -RA BR OVC002
     FM261500 31005KT 4SM -RAPLSN BR OVC012
     FM261700 30007KT 3SM -SN BR OVC010
     FM261900 29008KT 1SM -SN OVC005
     FM262200 30008KT 3SM -SN OVC015=

USA.gov is the U.S. government's official web portal to all federal, state and local government web resources and services.